Time;durP1;ratioP1;P1;durP2;ratioP2;P2;SDS_P1;SDS_P2;PMS_P1;PMS_P2;Temp;Humidity;BMP_temperature;BMP_pressure;BME280_temperature;BME280_humidity;BME280_pressure;Samples;Min_cycle;Max_cycle;Signal;HPM_P1;HPM_P2
2022/05/24 00:00:21;;;;;;;55.07;12.77;;;;;;;36.91;43.58;101284.75;5012663;28;20424;-73
2022/05/24 00:02:48;;;;;;;37.50;10.80;;;;;;;36.89;43.87;101286.91;5012558;28;20423;-73
2022/05/24 00:05:15;;;;;;;41.27;11.63;;;;;;;36.90;44.07;101283.13;5012657;28;20421;-75
2022/05/24 00:07:41;;;;;;;20.10;11.30;;;;;;;36.84;44.22;101270.75;5012786;28;20420;-76
2022/05/24 00:10:10;;;;;;;24.00;10.33;;;;;;;36.89;43.77;101275.28;5013011;28;20468;-75
2022/05/24 00:12:38;;;;;;;35.13;11.83;;;;;;;36.74;43.96;101271.66;5012399;28;20420;-73
2022/05/24 00:15:27;;;;;;;36.03;15.83;;;;;;;36.82;43.99;101271.00;5013929;28;20792;-73
2022/05/24 00:18:08;;;;;;;24.80;12.57;;;;;;;36.89;43.90;101275.28;5013703;28;20392;-73
2022/05/24 00:20:41;;;;;;;33.03;12.40;;;;;;;36.92;43.81;101270.13;5012172;28;20415;-73
2022/05/24 00:23:08;;;;;;;40.33;13.73;;;;;;;36.81;44.13;101272.09;5013871;28;20393;-74
2022/05/24 00:25:38;;;;;;;24.17;12.10;;;;;;;36.79;44.42;101266.19;5012150;28;20504;-73
2022/05/24 00:28:06;;;;;;;34.63;12.43;;;;;;;36.73;44.64;101255.72;5012129;28;20414;-73
2022/05/24 00:30:32;;;;;;;29.57;10.60;;;;;;;36.77;44.07;101241.34;5000239;28;20418;-73
2022/05/24 00:32:58;;;;;;;32.73;12.57;;;;;;;36.74;44.07;101241.13;4992389;28;20417;-75
2022/05/24 00:35:25;;;;;;;30.40;11.50;;;;;;;36.80;44.30;101232.66;5009313;28;20465;-75
2022/05/24 00:37:51;;;;;;;41.07;15.30;;;;;;;36.78;44.17;101224.03;4997453;28;20468;-73
2022/05/24 00:40:52;;;;;;;21.57;9.00;;;;;;;36.88;44.00;101203.38;5011963;28;20998;-73
2022/05/24 00:43:30;;;;;;;26.30;11.17;;;;;;;36.97;43.72;101198.97;5011942;28;20428;-75
2022/05/24 00:46:02;;;;;;;22.90;11.90;;;;;;;36.97;43.60;101193.53;5013592;28;20417;-76
2022/05/24 00:48:39;;;;;;;23.30;11.20;;;;;;;36.97;44.13;101186.25;5011874;28;20413;-75
2022/05/24 00:51:10;;;;;;;33.60;10.07;;;;;;;37.00;43.67;101182.13;5011711;28;20451;-75
2022/05/24 00:53:42;;;;;;;28.47;11.40;;;;;;;36.94;43.93;101181.41;5011778;28;20542;-73
2022/05/24 00:56:18;;;;;;;27.73;8.70;;;;;;;36.96;43.58;101170.31;5013118;28;20467;-74
2022/05/24 00:58:59;;;;;;;24.13;11.30;;;;;;;36.81;43.72;101165.88;5011681;28;20527;-73
2022/05/24 01:01:47;;;;;;;13.97;7.83;;;;;;;36.80;43.43;101161.56;5013279;28;20403;-74
2022/05/24 01:04:17;;;;;;;23.80;10.47;;;;;;;36.75;44.34;101151.63;5011675;28;20546;-73
2022/05/24 01:06:43;;;;;;;33.97;13.77;;;;;;;36.79;43.79;101143.75;5013412;28;20474;-74
2022/05/24 01:09:23;;;;;;;31.57;10.70;;;;;;;36.70;43.76;101137.38;5011677;28;20503;-73
2022/05/24 01:11:53;;;;;;;29.57;11.13;;;;;;;36.47;44.22;101131.72;5011774;28;20420;-74
2022/05/24 01:14:22;;;;;;;36.70;13.00;;;;;;;36.44;44.36;101120.69;5011531;28;20472;-73
2022/05/24 01:16:49;;;;;;;19.37;11.27;;;;;;;36.45;44.35;101116.88;5011681;28;20634;-73
2022/05/24 01:19:34;;;;;;;26.87;11.43;;;;;;;36.48;44.57;101105.50;5011439;28;20440;-73
2022/05/24 01:22:19;;;;;;;35.13;10.20;;;;;;;36.46;44.35;101095.00;5013071;28;20392;-73
2022/05/24 01:24:58;;;;;;;21.20;9.47;;;;;;;36.49;43.71;101097.09;5011408;28;20436;-73
2022/05/24 01:27:24;;;;;;;18.30;9.70;;;;;;;36.42;44.29;101079.66;5013102;28;20404;-75
2022/05/24 01:29:50;;;;;;;23.23;12.03;;;;;;;36.26;44.62;101082.50;5012904;28;20419;-75
2022/05/24 01:37:45;;;;;;;27.77;11.87;;;;;;;36.30;43.42;101064.63;5016054;28;20446;-74
2022/05/24 01:40:11;;;;;;;16.43;8.30;;;;;;;36.26;43.56;101062.78;5029511;28;20486;-74
2022/05/24 01:42:37;;;;;;;30.73;9.20;;;;;;;36.39;42.83;101053.16;5031780;28;20417;-74
2022/05/24 01:45:16;;;;;;;14.73;7.63;;;;;;;36.38;42.30;101046.97;5031651;28;20409;-74
2022/05/24 01:47:45;;;;;;;20.03;8.07;;;;;;;36.44;41.97;101053.13;5031590;28;21010;-75
2022/05/24 01:50:16;;;;;;;19.27;8.07;;;;;;;36.57;42.21;101053.22;5014906;28;20416;-75
2022/05/24 01:52:51;;;;;;;32.37;10.00;;;;;;;36.64;41.65;101046.63;4995432;28;20417;-73
2022/05/24 01:55:29;;;;;;;30.60;11.10;;;;;;;36.68;42.04;101036.84;5010457;28;20544;-73
2022/05/24 01:58:01;;;;;;;29.73;13.30;;;;;;;36.79;42.03;101030.19;5016591;28;20447;-73
2022/05/24 02:00:28;;;;;;;23.20;10.47;;;;;;;36.76;42.74;101028.88;5014865;28;20935;-73
2022/05/24 02:02:54;;;;;;;23.43;10.40;;;;;;;36.77;42.98;101032.38;5014320;28;20413;-75
2022/05/24 02:05:35;;;;;;;21.87;11.50;;;;;;;36.77;42.34;101038.63;5014735;28;20953;-73
2022/05/24 02:08:03;;;;;;;22.43;10.33;;;;;;;36.80;42.51;101039.91;5014081;28;20412;-75
2022/05/24 02:10:35;;;;;;;25.13;10.23;;;;;;;36.85;42.80;101032.53;5012783;28;20440;-74
2022/05/24 02:13:03;;;;;;;27.60;10.20;;;;;;;36.88;42.22;101035.75;5014373;28;20487;-73
2022/05/24 02:22:40;;;;;;;24.63;9.73;;;;;;;36.92;42.46;101028.69;5015780;28;20532;-74
2022/05/24 02:25:13;;;;;;;25.37;9.33;;;;;;;36.92;42.42;101031.38;5016233;28;20401;-73
2022/05/24 02:27:43;;;;;;;34.70;11.40;;;;;;;36.91;42.71;101029.78;5014396;28;20424;-73
2022/05/24 02:30:12;;;;;;;23.30;9.40;;;;;;;36.96;42.58;101032.41;5014459;28;20424;-73
2022/05/24 02:32:38;;;;;;;35.03;13.20;;;;;;;36.96;42.48;101016.19;5014349;28;20801;-73
2022/05/24 02:35:04;;;;;;;32.50;8.30;;;;;;;37.04;41.87;101020.91;5014764;28;20463;-75
2022/05/24 02:37:31;;;;;;;24.33;9.30;;;;;;;36.98;41.90;101011.28;5014167;28;20923;-75
2022/05/24 02:42:41;;;;;;;26.67;10.07;;;;;;;36.98;41.73;101022.91;5015810;28;20534;-75
2022/05/24 02:45:08;;;;;;;24.27;9.07;;;;;;;36.95;41.96;101028.06;5014050;28;20481;-75
2022/05/24 02:47:34;;;;;;;32.00;9.80;;;;;;;36.96;42.87;101029.72;5015737;28;20384;-75
2022/05/24 02:50:00;;;;;;;21.17;8.30;;;;;;;36.82;43.13;101035.81;5014002;28;20725;-75
2022/05/24 02:52:26;;;;;;;31.30;10.73;;;;;;;36.91;42.87;101037.91;5015524;28;20397;-75
2022/05/24 02:54:52;;;;;;;29.93;11.07;;;;;;;36.92;43.19;101043.00;5013863;28;20480;-75
2022/05/24 02:57:18;;;;;;;34.20;11.77;;;;;;;36.84;43.13;101035.53;5015331;28;20416;-75
2022/05/24 02:59:44;;;;;;;29.23;8.23;;;;;;;36.90;42.94;101041.69;5013826;28;20415;-76
2022/05/24 03:02:10;;;;;;;22.17;9.40;;;;;;;36.85;42.91;101043.34;5014273;28;20420;-75
2022/05/24 03:04:36;;;;;;;23.57;12.00;;;;;;;36.83;42.38;101045.56;5013706;28;20507;-75
2022/05/24 03:09:47;;;;;;;20.67;9.67;;;;;;;36.89;42.42;101035.47;5014971;28;21029;-75
2022/05/24 03:14:57;;;;;;;26.10;9.80;;;;;;;36.66;42.34;101047.16;5014875;28;20522;-75
2022/05/24 03:17:25;;;;;;;25.37;8.93;;;;;;;36.68;42.00;101050.38;5013532;28;20424;-75
2022/05/24 03:19:51;;;;;;;19.77;8.27;;;;;;;36.67;42.14;101062.28;5015001;28;20420;-75
2022/05/24 03:22:18;;;;;;;26.93;11.90;;;;;;;36.84;42.08;101073.38;5013450;28;20485;-75
2022/05/24 03:24:44;;;;;;;19.50;7.67;;;;;;;36.92;41.98;101080.06;5013215;28;20861;-76
2022/05/24 03:27:13;;;;;;;23.97;9.37;;;;;;;36.91;41.98;101081.16;5013397;28;20488;-75
2022/05/24 03:29:44;;;;;;;22.73;8.47;;;;;;;36.85;42.35;101096.63;5014939;28;20448;-75
2022/05/24 03:32:12;;;;;;;20.60;8.93;;;;;;;36.85;42.62;101110.94;5013176;28;20482;-75
2022/05/24 03:34:39;;;;;;;22.60;9.80;;;;;;;36.95;42.31;101106.50;5029861;28;20455;-75
2022/05/24 03:37:06;;;;;;;32.07;10.20;;;;;;;36.86;42.55;101112.53;5029512;28;20417;-75
2022/05/24 03:39:33;;;;;;;20.93;9.00;;;;;;;36.96;42.13;101106.22;5013253;28;20468;-75
2022/05/24 03:41:59;;;;;;;21.53;9.23;;;;;;;36.96;42.61;101114.31;5013052;28;20425;-75
2022/05/24 03:44:25;;;;;;;30.67;10.27;;;;;;;36.92;42.42;101109.78;5013006;28;20467;-75
2022/05/24 03:46:53;;;;;;;23.60;10.40;;;;;;;36.89;42.18;101110.38;5014613;28;20393;-75
2022/05/24 03:49:20;;;;;;;19.27;9.10;;;;;;;36.96;42.24;101108.13;5012928;28;20429;-75
2022/05/24 03:51:46;;;;;;;20.83;9.00;;;;;;;36.97;42.06;101113.22;5012312;28;20430;-75
2022/05/24 03:54:15;;;;;;;23.00;7.37;;;;;;;37.03;41.69;101106.66;5029201;28;20518;-75
2022/05/24 03:59:26;;;;;;;22.90;9.50;;;;;;;37.04;42.07;101123.66;5014280;28;20388;-75
2022/05/24 04:01:52;;;;;;;25.77;9.17;;;;;;;37.04;42.45;101119.06;5012631;28;20420;-75
2022/05/24 04:04:18;;;;;;;30.23;9.10;;;;;;;37.07;42.10;101114.97;5012612;28;20421;-75
2022/05/24 04:06:45;;;;;;;18.13;7.20;;;;;;;37.03;41.95;101114.75;5013367;28;20474;-75
2022/05/24 04:09:12;;;;;;;17.13;7.67;;;;;;;36.96;41.66;101117.03;5012640;28;20599;-75
2022/05/24 04:11:38;;;;;;;20.10;8.57;;;;;;;36.97;41.30;101125.94;5014065;28;20392;-75
2022/05/24 04:14:04;;;;;;;16.80;6.97;;;;;;;36.96;41.72;101125.16;5012294;28;20993;-75
2022/05/24 04:16:31;;;;;;;17.77;7.20;;;;;;;37.03;41.54;101125.56;5012434;28;20417;-75
2022/05/24 04:18:57;;;;;;;16.00;6.33;;;;;;;37.06;42.09;101124.16;5028850;28;20420;-75
2022/05/24 04:21:23;;;;;;;24.07;7.00;;;;;;;37.11;41.79;101124.91;5012344;28;20946;-75
2022/05/24 04:23:50;;;;;;;17.90;8.13;;;;;;;37.16;41.64;101126.72;5012145;28;20483;-75
2022/05/24 04:26:16;;;;;;;30.10;7.13;;;;;;;37.10;41.50;101123.28;5012238;28;20419;-75
2022/05/24 04:28:42;;;;;;;27.60;7.93;;;;;;;37.08;41.66;101122.78;5013819;28;20401;-75
2022/05/24 04:31:09;;;;;;;16.20;7.67;;;;;;;37.21;41.27;101125.84;5012071;28;20443;-76
2022/05/24 04:33:35;;;;;;;20.70;9.23;;;;;;;37.22;41.49;101116.63;5012118;28;20503;-75
2022/05/24 04:36:02;;;;;;;21.57;7.97;;;;;;;37.22;41.69;101113.94;5012036;28;20424;-76
2022/05/24 04:38:28;;;;;;;19.40;7.27;;;;;;;37.22;42.16;101111.22;5011859;28;20488;-75
2022/05/24 04:43:38;;;;;;;23.03;7.07;;;;;;;37.17;42.09;101104.00;5013597;28;21017;-75
2022/05/24 04:46:05;;;;;;;13.83;7.80;;;;;;;37.18;41.98;101115.59;5011945;28;20446;-75
2022/05/24 04:48:31;;;;;;;15.47;8.00;;;;;;;37.21;41.67;101107.72;5011772;28;20453;-75
2022/05/24 04:50:58;;;;;;;28.43;8.37;;;;;;;37.17;42.03;101097.78;5011835;28;20448;-75
2022/05/24 04:53:27;;;;;;;17.13;7.00;;;;;;;37.21;41.92;101101.50;5011690;28;20515;-76
2022/05/24 04:55:53;;;;;;;19.27;9.27;;;;;;;37.26;42.03;101109.50;5013279;28;20431;-75
2022/05/24 04:58:20;;;;;;;18.40;7.13;;;;;;;37.20;41.87;101108.00;5028178;28;21024;-75
2022/05/24 05:00:48;;;;;;;20.27;6.43;;;;;;;37.16;42.06;101107.00;5011656;28;20444;-74
2022/05/24 05:03:17;;;;;;;15.87;7.07;;;;;;;37.21;42.23;101113.13;5011403;28;20426;-74
2022/05/24 05:05:45;;;;;;;17.23;7.10;;;;;;;37.23;42.27;101118.25;5027394;28;20436;-74
2022/05/24 05:08:11;;;;;;;19.83;7.30;;;;;;;37.23;42.01;101123.66;5013378;28;20492;-75
2022/05/24 05:10:37;;;;;;;15.17;6.10;;;;;;;37.19;41.98;101131.53;5011465;28;20424;-76
2022/05/24 05:13:04;;;;;;;14.83;7.23;;;;;;;37.21;41.88;101140.19;5011505;28;20942;-75
2022/05/24 05:15:34;;;;;;;17.40;7.30;;;;;;;37.25;41.89;101148.50;5013211;28;20455;-75
2022/05/24 05:18:12;;;;;;;17.10;5.87;;;;;;;37.25;41.65;101151.19;5011500;28;20451;-74
2022/05/24 05:20:41;;;;;;;17.03;6.57;;;;;;;37.25;41.72;101148.50;5027836;28;20425;-74
2022/05/24 05:23:09;;;;;;;10.40;5.23;;;;;;;37.22;41.95;101149.09;5027940;28;20431;-74
2022/05/24 05:25:36;;;;;;;13.17;5.50;;;;;;;37.24;42.12;101155.00;5011447;28;20409;-75
2022/05/24 05:28:02;;;;;;;23.83;7.67;;;;;;;37.00;42.76;101155.09;5011291;28;20511;-75
2022/05/24 05:33:14;;;;;;;16.33;7.33;;;;;;;36.92;42.46;101158.47;5012655;28;20399;-74
2022/05/24 05:35:44;;;;;;;14.40;6.90;;;;;;;36.88;43.14;101163.63;5012757;28;20535;-74
2022/05/24 05:38:10;;;;;;;18.83;7.90;;;;;;;36.86;42.80;101155.78;5011144;28;20471;-72
2022/05/24 05:40:37;;;;;;;13.33;5.80;;;;;;;36.88;42.71;101160.94;5011355;28;20409;-75
2022/05/24 05:43:03;;;;;;;14.63;6.57;;;;;;;37.02;42.84;101161.84;5011253;28;20802;-75
2022/05/24 05:45:29;;;;;;;14.93;7.33;;;;;;;37.06;42.96;101154.72;5011206;28;20435;-75
2022/05/24 05:47:56;;;;;;;27.10;7.03;;;;;;;37.01;43.01;101157.50;5011227;28;20511;-75
2022/05/24 05:50:22;;;;;;;13.57;6.10;;;;;;;37.03;42.70;101155.31;5009341;28;20811;-73
2022/05/24 05:52:50;;;;;;;14.80;6.40;;;;;;;37.14;42.53;101153.28;5010939;28;20447;-72
2022/05/24 05:55:16;;;;;;;17.13;5.33;;;;;;;37.08;42.68;101162.56;5006264;28;20474;-73
2022/05/24 05:57:42;;;;;;;12.47;6.13;;;;;;;36.93;43.41;101165.47;5010405;28;20455;-75
2022/05/24 06:00:09;;;;;;;10.53;5.20;;;;;;;37.07;42.58;101169.03;5010757;28;20420;-76
2022/05/24 06:02:36;;;;;;;22.97;8.00;;;;;;;37.21;42.35;101164.53;5012636;28;20404;-73
2022/05/24 06:05:02;;;;;;;16.83;6.60;;;;;;;37.18;42.22;101156.19;5000557;28;20425;-74
2022/05/24 06:07:28;;;;;;;13.77;5.77;;;;;;;37.19;42.47;101155.06;5004948;28;20478;-77
2022/05/24 06:09:54;;;;;;;18.17;6.50;;;;;;;37.22;41.92;101155.31;5009947;28;20440;-73
2022/05/24 06:12:20;;;;;;;20.80;8.10;;;;;;;37.20;42.08;101162.09;5009821;28;20424;-73
2022/05/24 06:14:47;;;;;;;13.73;6.00;;;;;;;37.31;42.12;101153.53;5009896;28;20454;-73
2022/05/24 06:17:13;;;;;;;14.17;6.50;;;;;;;37.29;42.30;101152.22;5014909;28;20408;-73
2022/05/24 06:19:39;;;;;;;16.00;5.93;;;;;;;37.23;42.27;101162.31;5014232;28;20443;-74
2022/05/24 06:22:05;;;;;;;12.50;5.80;;;;;;;37.15;42.33;101171.09;4995853;28;20504;-73
2022/05/24 06:24:31;;;;;;;20.23;6.23;;;;;;;37.18;42.12;101180.53;5014175;28;20989;-72
2022/05/24 06:26:58;;;;;;;12.20;6.73;;;;;;;37.18;42.09;101191.34;5014633;28;20479;-72
2022/05/24 06:29:24;;;;;;;15.10;7.50;;;;;;;37.16;41.95;101194.34;5014025;28;20882;-73
2022/05/24 06:31:50;;;;;;;14.70;5.80;;;;;;;37.17;42.00;101197.84;5014128;28;20404;-72
2022/05/24 06:34:16;;;;;;;15.33;6.90;;;;;;;37.19;42.28;101209.19;5010118;28;20456;-72
2022/05/24 06:36:43;;;;;;;14.33;6.60;;;;;;;37.21;41.97;101210.50;4994118;28;20432;-73
2022/05/24 06:39:09;;;;;;;10.83;5.47;;;;;;;37.41;41.73;101208.63;4994031;28;20497;-74
2022/05/24 06:41:35;;;;;;;15.50;7.80;;;;;;;37.42;41.46;101212.94;4994065;28;20421;-73
2022/05/24 06:44:01;;;;;;;14.87;6.50;;;;;;;37.40;41.40;101213.25;4995643;28;20436;-74
2022/05/24 06:46:27;;;;;;;17.23;5.87;;;;;;;37.47;41.68;101208.25;4994216;28;20413;-73
2022/05/24 06:48:53;;;;;;;15.50;6.27;;;;;;;37.55;41.74;101214.88;5004254;28;20484;-72
2022/05/24 06:51:21;;;;;;;18.50;7.00;;;;;;;37.55;42.05;101221.09;5008104;28;20805;-73
2022/05/24 06:53:48;;;;;;;18.37;7.93;;;;;;;37.55;42.10;101218.41;5008183;28;20477;-76
2022/05/24 06:56:16;;;;;;;14.00;6.03;;;;;;;37.47;42.29;101218.28;5001019;28;20417;-73
2022/05/24 06:58:42;;;;;;;16.20;7.20;;;;;;;37.44;42.41;101232.38;5010327;28;20424;-72
2022/05/24 07:03:55;;;;;;;17.93;7.40;;;;;;;37.46;41.81;101233.72;5014842;28;20427;-72
2022/05/24 07:06:22;;;;;;;16.97;5.90;;;;;;;37.48;42.10;101239.63;5013739;28;20458;-71
2022/05/24 07:08:49;;;;;;;18.87;5.17;;;;;;;37.53;41.84;101241.44;5004870;28;20445;-71
2022/05/24 07:11:19;;;;;;;14.90;8.07;;;;;;;37.55;41.82;101240.06;4995479;28;20997;-71
2022/05/24 07:13:46;;;;;;;15.03;5.80;;;;;;;37.56;41.53;101247.06;4993960;28;20513;-71
2022/05/24 07:16:12;;;;;;;21.23;6.70;;;;;;;37.42;42.05;101256.22;4996909;28;20438;-71
2022/05/24 07:18:39;;;;;;;15.53;5.80;;;;;;;37.40;42.08;101259.25;5002877;28;20472;-72
2022/05/24 07:21:06;;;;;;;11.87;5.50;;;;;;;37.59;41.80;101259.22;5011362;28;20417;-72
2022/05/24 07:23:37;;;;;;;18.80;6.50;;;;;;;37.62;41.78;101264.03;5012714;28;20404;-71
2022/05/24 07:26:17;;;;;;;12.43;5.57;;;;;;;37.64;41.71;101265.38;5012698;28;20938;-72
2022/05/24 07:28:44;;;;;;;13.00;4.87;;;;;;;37.63;42.19;101271.88;5013123;28;20454;-73
2022/05/24 07:31:11;;;;;;;10.33;5.37;;;;;;;37.62;41.63;101275.66;5010813;28;20516;-71
2022/05/24 07:33:37;;;;;;;9.97;6.00;;;;;;;37.62;42.05;101272.97;5012184;28;20405;-72
2022/05/24 07:36:05;;;;;;;20.57;7.30;;;;;;;37.64;41.80;101283.50;5008522;28;20864;-72
2022/05/24 07:38:31;;;;;;;11.60;4.93;;;;;;;37.58;41.68;101288.19;5008921;28;20853;-72
2022/05/24 07:46:28;;;;;;;15.30;6.77;;;;;;;37.69;41.81;101290.72;5005888;28;20406;-72
2022/05/24 07:48:54;;;;;;;14.40;6.83;;;;;;;37.68;42.01;101298.03;4999255;28;20819;-71
2022/05/24 07:51:20;;;;;;;21.57;6.47;;;;;;;37.70;42.24;101303.19;5011276;28;20519;-70
2022/05/24 07:53:47;;;;;;;13.80;5.70;;;;;;;37.75;41.79;101306.63;5011944;28;21089;-72
2022/05/24 07:56:15;;;;;;;17.27;5.93;;;;;;;37.74;41.63;101315.81;5011686;28;20854;-72
2022/05/24 07:58:43;;;;;;;12.63;7.10;;;;;;;37.70;42.12;101312.13;5001175;28;20432;-74
2022/05/24 08:01:10;;;;;;;16.50;6.23;;;;;;;37.75;42.01;101316.63;5006776;28;20543;-73
2022/05/24 08:03:38;;;;;;;14.77;6.60;;;;;;;37.73;41.78;101316.94;5011695;28;20439;-72
2022/05/24 08:06:05;;;;;;;16.40;7.27;;;;;;;37.69;42.36;101324.03;5012372;28;20915;-72
2022/05/24 08:08:32;;;;;;;15.37;7.07;;;;;;;37.64;42.02;101324.13;5011904;28;20459;-72
2022/05/24 08:10:58;;;;;;;15.50;5.67;;;;;;;37.62;42.05;101326.28;5012902;28;20433;-72
2022/05/24 08:13:24;;;;;;;17.97;10.10;;;;;;;37.75;42.81;101331.00;5028409;28;20444;-72
2022/05/24 08:15:51;;;;;;;22.43;11.30;;;;;;;37.60;43.14;101332.00;5013416;28;20446;-71
2022/05/24 08:18:20;;;;;;;29.03;14.53;;;;;;;37.58;43.26;101326.09;5013898;28;20916;-73
2022/05/24 08:20:46;;;;;;;25.47;14.13;;;;;;;37.51;43.83;101333.78;5011582;28;20997;-73
2022/05/24 08:23:13;;;;;;;16.40;12.37;;;;;;;37.45;43.97;101337.66;5008185;28;20440;-72
2022/05/24 08:25:40;;;;;;;22.90;14.03;;;;;;;37.37;43.96;101340.97;5000926;28;20410;-72
2022/05/24 08:28:07;;;;;;;24.27;16.20;;;;;;;37.33;44.28;101345.34;5010412;28;20531;-72
2022/05/24 08:30:37;;;;;;;22.73;10.93;;;;;;;37.11;44.37;101345.88;5003671;28;20807;-72
2022/05/24 08:33:06;;;;;;;20.40;13.20;;;;;;;36.82;44.17;101346.72;5017480;28;20450;-74
2022/05/24 08:35:34;;;;;;;16.33;11.03;;;;;;;36.94;44.98;101351.75;5001240;28;20544;-72
2022/05/24 08:38:02;;;;;;;21.37;13.83;;;;;;;37.09;44.38;101357.00;5002277;28;20424;-73
2022/05/24 08:40:29;;;;;;;16.33;10.93;;;;;;;37.22;44.33;101354.69;5001239;28;20417;-72
2022/05/24 08:43:23;;;;;;;21.00;11.40;;;;;;;37.26;44.21;101353.00;5001358;28;20444;-73
2022/05/24 08:48:47;;;;;;;18.77;11.60;;;;;;;37.20;43.99;101368.50;5004418;28;20411;-73
2022/05/24 08:51:27;;;;;;;20.87;11.80;;;;;;;36.99;44.93;101376.03;5005281;28;20495;-73
2022/05/24 08:54:20;;;;;;;19.67;11.57;;;;;;;37.27;44.74;101384.38;5004085;28;20459;-76
2022/05/24 08:57:00;;;;;;;26.50;13.50;;;;;;;37.27;44.25;101387.91;5009865;28;20447;-73
2022/05/24 08:59:26;;;;;;;22.37;14.43;;;;;;;37.18;44.64;101383.41;5011858;28;20401;-73
2022/05/24 09:01:53;;;;;;;21.30;14.77;;;;;;;37.25;44.39;101391.97;5011867;28;20417;-73
2022/05/24 09:04:20;;;;;;;27.33;15.67;;;;;;;37.08;44.12;101387.84;5013231;28;20440;-73
2022/05/24 09:07:01;;;;;;;26.80;16.50;;;;;;;37.13;44.28;101392.38;5001652;28;20414;-73
2022/05/24 09:09:51;;;;;;;39.13;18.00;;;;;;;37.22;44.52;101390.66;5000228;28;20454;-74
2022/05/24 09:12:30;;;;;;;21.47;13.80;;;;;;;37.42;44.46;101383.41;5011555;28;20405;-75
2022/05/24 09:15:24;;;;;;;28.50;16.87;;;;;;;37.45;44.18;101380.94;5010142;28;20471;-74
2022/05/24 09:18:20;;;;;;;27.97;18.60;;;;;;;37.57;44.28;101392.16;5010247;28;20417;-72
2022/05/24 09:20:47;;;;;;;38.50;22.90;;;;;;;37.67;43.91;101393.91;5010585;28;20807;-72
2022/05/24 09:23:25;;;;;;;28.53;18.93;;;;;;;37.68;44.05;101390.09;5011484;28;20459;-73
2022/05/24 09:25:59;;;;;;;19.70;13.30;;;;;;;37.65;43.38;101396.91;5011448;28;20507;-72
2022/05/24 09:28:45;;;;;;;17.57;12.00;;;;;;;37.64;44.12;101389.09;5011413;28;20444;-72
2022/05/24 09:31:18;;;;;;;25.87;13.90;;;;;;;37.87;43.86;101390.13;5000906;28;20421;-73
2022/05/24 09:33:45;;;;;;;21.00;11.50;;;;;;;37.91;43.74;101388.44;4991718;28;20422;-71
2022/05/24 09:36:34;;;;;;;20.00;12.50;;;;;;;37.98;43.51;101388.88;4993605;28;20413;-71
2022/05/24 09:39:06;;;;;;;21.10;13.40;;;;;;;37.84;43.14;101386.13;4991646;28;20477;-71
2022/05/24 09:41:32;;;;;;;23.23;12.27;;;;;;;37.82;43.12;101382.09;4991663;28;20971;-72
2022/05/24 09:44:13;;;;;;;21.63;15.97;;;;;;;37.90;43.50;101381.44;4991786;28;20429;-72
2022/05/24 09:46:42;;;;;;;19.20;12.10;;;;;;;37.99;43.09;101378.84;4991642;28;20464;-72
2022/05/24 09:49:31;;;;;;;24.40;14.33;;;;;;;38.04;43.12;101385.00;5002260;28;20424;-71
2022/05/24 09:52:08;;;;;;;19.17;9.97;;;;;;;38.14;42.60;101381.34;5014563;28;20490;-73
2022/05/24 09:54:34;;;;;;;20.90;12.77;;;;;;;38.15;42.28;101380.22;5014911;28;20451;-72
2022/05/24 09:57:00;;;;;;;14.90;9.87;;;;;;;38.23;42.23;101376.03;5016612;28;20638;-72
2022/05/24 09:59:28;;;;;;;16.43;9.10;;;;;;;38.28;42.40;101381.41;5014655;28;20516;-71
2022/05/24 10:01:54;;;;;;;16.33;9.10;;;;;;;38.29;42.04;101377.59;5014285;28;20950;-69
2022/05/24 10:04:27;;;;;;;15.30;8.67;;;;;;;38.28;41.95;101370.56;5014888;28;20981;-76
2022/05/24 10:06:59;;;;;;;15.53;9.87;;;;;;;38.29;41.86;101366.75;5014740;28;20412;-72
2022/05/24 10:09:34;;;;;;;14.10;8.50;;;;;;;38.32;41.99;101369.69;5008848;28;20963;-71
2022/05/24 10:12:26;;;;;;;11.13;5.30;;;;;;;38.30;42.12;101366.44;5019907;28;20467;-72
2022/05/24 10:14:52;;;;;;;8.93;3.93;;;;;;;38.12;42.28;101367.25;5005364;28;20539;-72
2022/05/24 10:17:18;;;;;;;13.07;6.30;;;;;;;38.04;43.02;101367.94;5009789;28;20519;-71
2022/05/24 10:19:47;;;;;;;11.70;5.83;;;;;;;38.07;43.40;101370.06;5014773;28;20424;-73
2022/05/24 10:22:55;;;;;;;20.17;6.00;;;;;;;38.11;43.02;101369.16;5007537;28;20471;-72
2022/05/24 10:25:30;;;;;;;14.13;5.80;;;;;;;38.07;43.40;101360.03;4980786;28;20471;-71
2022/05/24 10:28:18;;;;;;;20.17;6.30;;;;;;;38.11;43.70;101349.41;5004942;28;20943;-72
2022/05/24 10:31:03;;;;;;;12.50;6.50;;;;;;;38.10;43.79;101340.47;5002812;28;20425;-71
2022/05/24 10:39:45;;;;;;;14.90;7.00;;;;;;;38.21;43.17;101338.41;5007693;28;20459;-71
2022/05/24 10:42:48;;;;;;;9.20;4.97;;;;;;;38.25;42.90;101328.59;5014272;28;20546;-71
2022/05/24 10:45:49;;;;;;;10.80;3.83;;;;;;;38.32;42.19;101322.81;5010582;28;20829;-71
2022/05/24 10:48:15;;;;;;;11.00;4.23;;;;;;;38.34;42.23;101318.69;4995828;28;20812;-71
2022/05/24 10:50:53;;;;;;;14.40;5.77;;;;;;;38.42;41.75;101312.56;4994398;28;20516;-71
2022/05/24 10:53:34;;;;;;;11.43;6.43;;;;;;;38.34;41.00;101309.78;5009224;28;20931;-71
2022/05/24 10:56:26;;;;;;;14.73;4.23;;;;;;;38.42;41.07;101309.06;5007766;28;20449;-71
2022/05/24 10:58:56;;;;;;;21.50;7.47;;;;;;;38.39;41.00;101309.69;5011360;28;20417;-71
2022/05/24 11:01:37;;;;;;;8.10;5.20;;;;;;;38.51;40.75;101295.66;5007062;28;20907;-72
2022/05/24 11:04:45;;;;;;;24.90;5.83;;;;;;;38.53;41.34;101291.50;5009458;28;20482;-71
2022/05/24 11:07:17;;;;;;;13.20;4.20;;;;;;;38.58;40.69;101294.13;4986635;28;20468;-71
2022/05/24 11:09:52;;;;;;;12.97;5.83;;;;;;;38.59;40.89;101293.03;5002341;28;20524;-71
2022/05/24 11:12:28;;;;;;;8.37;4.80;;;;;;;38.59;41.13;101284.09;5003982;28;20424;-72
2022/05/24 11:15:03;;;;;;;9.47;3.50;;;;;;;38.62;41.14;101276.19;4993709;28;20527;-74
2022/05/24 11:17:29;;;;;;;16.80;5.90;;;;;;;38.70;40.98;101285.50;4994492;28;20464;-73
2022/05/24 11:19:56;;;;;;;11.10;4.93;;;;;;;38.77;41.04;101279.72;4994027;28;20420;-74
2022/05/24 11:22:33;;;;;;;13.17;5.53;;;;;;;38.72;41.19;101277.09;4993924;28;20508;-74
2022/05/24 11:25:27;;;;;;;10.33;3.80;;;;;;;38.75;41.38;101271.09;4993883;28;20500;-75
2022/05/24 11:28:04;;;;;;;11.17;5.10;;;;;;;38.73;41.29;101263.22;4997207;28;20418;-74
2022/05/24 11:30:33;;;;;;;12.20;4.20;;;;;;;38.75;41.55;101269.16;4993485;28;20464;-74
2022/05/24 11:33:02;;;;;;;13.40;5.60;;;;;;;38.76;41.45;101261.84;4987532;28;20428;-71
2022/05/24 11:35:35;;;;;;;8.23;4.90;;;;;;;38.72;41.00;101258.13;4993282;28;20464;-73
2022/05/24 11:38:17;;;;;;;12.70;4.00;;;;;;;38.50;41.58;101258.81;4996751;28;20504;-74
2022/05/24 11:40:55;;;;;;;12.20;4.80;;;;;;;38.57;41.05;101257.28;5014204;28;20420;-75
2022/05/24 11:43:36;;;;;;;13.83;7.57;;;;;;;38.60;40.79;101253.16;5013035;28;20591;-71
2022/05/24 11:46:10;;;;;;;13.60;5.00;;;;;;;38.69;40.59;101254.09;5013078;28;20503;-72
2022/05/24 11:48:46;;;;;;;15.00;3.90;;;;;;;38.71;40.50;101243.72;4991790;28;20428;-72
2022/05/24 11:51:43;;;;;;;12.40;8.10;;;;;;;38.79;41.83;101247.66;5012361;28;20408;-74
2022/05/24 11:54:19;;;;;;;18.33;6.00;;;;;;;38.69;41.88;101252.16;5012834;28;20448;-71
2022/05/24 11:57:15;;;;;;;13.20;6.37;;;;;;;38.57;41.69;101241.03;5009753;28;20494;-74
2022/05/24 11:59:41;;;;;;;15.30;6.40;;;;;;;38.69;41.86;101238.63;5015631;28;20433;-73
2022/05/24 12:02:24;;;;;;;18.90;6.40;;;;;;;38.59;42.25;101233.38;5012232;28;20974;-72
2022/05/24 12:07:59;;;;;;;12.30;5.80;;;;;;;38.63;41.60;101228.19;5009062;28;20396;-72
2022/05/24 12:10:46;;;;;;;13.63;5.30;;;;;;;38.56;41.39;101223.16;5011834;28;20606;-72
2022/05/24 12:13:27;;;;;;;11.33;6.20;;;;;;;38.53;41.88;101221.03;5008134;28;20491;-75
2022/05/24 12:15:56;;;;;;;14.47;7.27;;;;;;;38.61;41.79;101217.66;5026271;28;20528;-74
2022/05/24 12:18:34;;;;;;;15.63;5.43;;;;;;;38.27;41.57;101217.22;5010632;28;20935;-73
2022/05/24 12:21:00;;;;;;;15.27;6.50;;;;;;;38.17;41.85;101207.34;5011428;28;20425;-72